sensor_id;sensor_type;location;lat;lon;timestamp;pressure;altitude;pressure_sealevel;temperature
37452;BMP280;23314;51.114;6.900;2022-12-04T00:00:00;101368.47;;;4.18
37452;BMP280;23314;51.114;6.900;2022-12-04T00:02:25;101368.78;;;4.17
37452;BMP280;23314;51.114;6.900;2022-12-04T00:04:51;101371.41;;;4.17
37452;BMP280;23314;51.114;6.900;2022-12-04T00:07:16;101372.19;;;4.17
37452;BMP280;23314;51.114;6.900;2022-12-04T00:09:41;101367.25;;;4.16
37452;BMP280;23314;51.114;6.900;2022-12-04T00:12:07;101364.94;;;4.14
37452;BMP280;23314;51.114;6.900;2022-12-04T00:14:32;101361.53;;;4.14
37452;BMP280;23314;51.114;6.900;2022-12-04T00:16:58;101358.56;;;4.15
37452;BMP280;23314;51.114;6.900;2022-12-04T00:19:23;101361.22;;;4.15
37452;BMP280;23314;51.114;6.900;2022-12-04T00:21:49;101354.69;;;4.12
37452;BMP280;23314;51.114;6.900;2022-12-04T00:24:15;101353.59;;;4.14
37452;BMP280;23314;51.114;6.900;2022-12-04T00:26:43;101350.22;;;4.13
37452;BMP280;23314;51.114;6.900;2022-12-04T00:29:09;101348.31;;;4.14
37452;BMP280;23314;51.114;6.900;2022-12-04T00:31:34;101343.03;;;4.14
37452;BMP280;23314;51.114;6.900;2022-12-04T00:33:59;101343.81;;;4.14
37452;BMP280;23314;51.114;6.900;2022-12-04T00:36:27;101341.94;;;4.15
37452;BMP280;23314;51.114;6.900;2022-12-04T00:38:53;101334.00;;;4.15
37452;BMP280;23314;51.114;6.900;2022-12-04T00:41:21;101339.66;;;4.13
37452;BMP280;23314;51.114;6.900;2022-12-04T00:43:47;101330.19;;;4.12
37452;BMP280;23314;51.114;6.900;2022-12-04T00:46:13;101338.88;;;4.12
37452;BMP280;23314;51.114;6.900;2022-12-04T00:48:39;101336.22;;;4.12
37452;BMP280;23314;51.114;6.900;2022-12-04T00:51:07;101340.06;;;4.15
37452;BMP280;23314;51.114;6.900;2022-12-04T00:53:33;101343.47;;;4.16
37452;BMP280;23314;51.114;6.900;2022-12-04T00:56:03;101340.50;;;4.17
37452;BMP280;23314;51.114;6.900;2022-12-04T00:58:28;101333.78;;;4.20
37452;BMP280;23314;51.114;6.900;2022-12-04T01:01:03;101331.94;;;4.20
37452;BMP280;23314;51.114;6.900;2022-12-04T01:03:29;101333.78;;;4.20
37452;BMP280;23314;51.114;6.900;2022-12-04T01:05:55;101334.97;;;4.22
37452;BMP280;23314;51.114;6.900;2022-12-04T01:08:20;101331.63;;;4.25
37452;BMP280;23314;51.114;6.900;2022-12-04T01:10:45;101332.84;;;4.28
37452;BMP280;23314;51.114;6.900;2022-12-04T01:13:11;101335.81;;;4.26
37452;BMP280;23314;51.114;6.900;2022-12-04T01:15:40;101330.53;;;4.26
37452;BMP280;23314;51.114;6.900;2022-12-04T01:18:07;101327.88;;;4.26
37452;BMP280;23314;51.114;6.900;2022-12-04T01:20:33;101335.38;;;4.24
37452;BMP280;23314;51.114;6.900;2022-12-04T01:22:58;101332.34;;;4.22
37452;BMP280;23314;51.114;6.900;2022-12-04T01:25:23;101332.69;;;4.21
37452;BMP280;23314;51.114;6.900;2022-12-04T01:27:49;101338.31;;;4.19
37452;BMP280;23314;51.114;6.900;2022-12-04T01:30:14;101341.69;;;4.20
37452;BMP280;23314;51.114;6.900;2022-12-04T01:32:39;101336.41;;;4.20
37452;BMP280;23314;51.114;6.900;2022-12-04T01:35:05;101338.31;;;4.19
37452;BMP280;23314;51.114;6.900;2022-12-04T01:37:31;101334.22;;;4.22
37452;BMP280;23314;51.114;6.900;2022-12-04T01:39:56;101337.63;;;4.22
37452;BMP280;23314;51.114;6.900;2022-12-04T01:42:22;101338.72;;;4.21
37452;BMP280;23314;51.114;6.900;2022-12-04T01:47:53;101328.84;;;4.18
37452;BMP280;23314;51.114;6.900;2022-12-04T01:50:20;101331.06;;;4.16
37452;BMP280;23314;51.114;6.900;2022-12-04T01:52:45;101318.16;;;4.15
37452;BMP280;23314;51.114;6.900;2022-12-04T01:55:11;101323.44;;;4.15
37452;BMP280;23314;51.114;6.900;2022-12-04T01:57:36;101316.97;;;4.12
37452;BMP280;23314;51.114;6.900;2022-12-04T02:00:11;101314.25;;;4.08
37452;BMP280;23314;51.114;6.900;2022-12-04T02:02:40;101310.41;;;4.06
37452;BMP280;23314;51.114;6.900;2022-12-04T02:05:10;101316.03;;;4.04
37452;BMP280;23314;51.114;6.900;2022-12-04T02:07:37;101311.84;;;4.03
37452;BMP280;23314;51.114;6.900;2022-12-04T02:10:04;101316.34;;;4.03
37452;BMP280;23314;51.114;6.900;2022-12-04T02:15:56;101312.56;;;4.00
37452;BMP280;23314;51.114;6.900;2022-12-04T02:18:38;101315.19;;;4.00
37452;BMP280;23314;51.114;6.900;2022-12-04T02:21:15;101317.03;;;4.00
37452;BMP280;23314;51.114;6.900;2022-12-04T02:29:50;101319.00;;;4.03
37452;BMP280;23314;51.114;6.900;2022-12-04T02:32:38;101321.22;;;4.01
37452;BMP280;23314;51.114;6.900;2022-12-04T02:35:24;101318.94;;;3.99
37452;BMP280;23314;51.114;6.900;2022-12-04T02:38:09;101324.97;;;4.00
37452;BMP280;23314;51.114;6.900;2022-12-04T02:40:59;101320.13;;;4.02
37452;BMP280;23314;51.114;6.900;2022-12-04T02:43:29;101323.53;;;4.02
37452;BMP280;23314;51.114;6.900;2022-12-04T02:46:04;101319.00;;;4.03
37452;BMP280;23314;51.114;6.900;2022-12-04T02:48:33;101317.13;;;4.03
37452;BMP280;23314;51.114;6.900;2022-12-04T02:51:00;101319.84;;;4.07
37452;BMP280;23314;51.114;6.900;2022-12-04T02:53:31;101319.84;;;4.07
37452;BMP280;23314;51.114;6.900;2022-12-04T02:56:10;101319.09;;;4.06
37452;BMP280;23314;51.114;6.900;2022-12-04T02:58:44;101316.78;;;4.05
37452;BMP280;23314;51.114;6.900;2022-12-04T03:01:12;101322.84;;;4.05
37452;BMP280;23314;51.114;6.900;2022-12-04T03:04:06;101329.66;;;4.06
37452;BMP280;23314;51.114;6.900;2022-12-04T03:06:38;101323.28;;;4.07
37452;BMP280;23314;51.114;6.900;2022-12-04T03:09:12;101322.50;;;4.07
37452;BMP280;23314;51.114;6.900;2022-12-04T03:11:44;101329.75;;;4.10
37452;BMP280;23314;51.114;6.900;2022-12-04T03:14:33;101333.94;;;4.11
37452;BMP280;23314;51.114;6.900;2022-12-04T03:17:05;101324.47;;;4.10
37452;BMP280;23314;51.114;6.900;2022-12-04T03:19:36;101325.56;;;4.09
37452;BMP280;23314;51.114;6.900;2022-12-04T03:22:06;101329.97;;;4.05
37452;BMP280;23314;51.114;6.900;2022-12-04T03:24:40;101323.16;;;4.04
37452;BMP280;23314;51.114;6.900;2022-12-04T03:27:25;101326.91;;;4.03
37452;BMP280;23314;51.114;6.900;2022-12-04T03:29:55;101324.69;;;4.05
37452;BMP280;23314;51.114;6.900;2022-12-04T03:37:42;101327.88;;;4.10
37452;BMP280;23314;51.114;6.900;2022-12-04T03:40:22;101324.47;;;4.10
37452;BMP280;23314;51.114;6.900;2022-12-04T03:43:03;101315.75;;;4.09
37452;BMP280;23314;51.114;6.900;2022-12-04T03:48:21;101314.16;;;4.05
37452;BMP280;23314;51.114;6.900;2022-12-04T03:50:56;101314.50;;;4.03
37452;BMP280;23314;51.114;6.900;2022-12-04T03:53:32;101311.84;;;4.03
37452;BMP280;23314;51.114;6.900;2022-12-04T03:56:16;101319.00;;;4.03
37452;BMP280;23314;51.114;6.900;2022-12-04T03:58:45;101312.97;;;4.02
37452;BMP280;23314;51.114;6.900;2022-12-04T04:01:13;101315.19;;;4.00
37452;BMP280;23314;51.114;6.900;2022-12-04T04:03:46;101318.50;;;3.97
37452;BMP280;23314;51.114;6.900;2022-12-04T04:06:23;101323.44;;;3.99
37452;BMP280;23314;51.114;6.900;2022-12-04T04:08:53;101321.56;;;3.99
37452;BMP280;23314;51.114;6.900;2022-12-04T04:11:30;101320.78;;;3.99
37452;BMP280;23314;51.114;6.900;2022-12-04T04:14:04;101321.56;;;3.99
37452;BMP280;23314;51.114;6.900;2022-12-04T04:16:58;101325.41;;;4.02
37452;BMP280;23314;51.114;6.900;2022-12-04T04:19:46;101321.56;;;3.99
37452;BMP280;23314;51.114;6.900;2022-12-04T04:22:32;101320.03;;;3.98
37452;BMP280;23314;51.114;6.900;2022-12-04T04:25:20;101327.53;;;3.96
37452;BMP280;23314;51.114;6.900;2022-12-04T04:27:55;101332.44;;;3.97
37452;BMP280;23314;51.114;6.900;2022-12-04T04:30:21;101326.84;;;3.99
37452;BMP280;23314;51.114;6.900;2022-12-04T04:32:54;101329.13;;;4.01
37452;BMP280;23314;51.114;6.900;2022-12-04T04:35:25;101330.34;;;4.03
37452;BMP280;23314;51.114;6.900;2022-12-04T04:43:17;101323.88;;;4.01
37452;BMP280;23314;51.114;6.900;2022-12-04T04:45:50;101318.25;;;4.02
37452;BMP280;23314;51.114;6.900;2022-12-04T04:48:26;101326.41;;;3.97
37452;BMP280;23314;51.114;6.900;2022-12-04T04:50:53;101317.63;;;3.93
37452;BMP280;23314;51.114;6.900;2022-12-04T04:53:22;101318.72;;;3.92
37452;BMP280;23314;51.114;6.900;2022-12-04T04:55:51;101318.72;;;3.92
37452;BMP280;23314;51.114;6.900;2022-12-04T04:58:18;101314.91;;;3.89
37452;BMP280;23314;51.114;6.900;2022-12-04T05:01:13;101308.00;;;3.85
37452;BMP280;23314;51.114;6.900;2022-12-04T05:03:39;101303.28;;;3.78
37452;BMP280;23314;51.114;6.900;2022-12-04T05:06:05;101311.13;;;3.74
37452;BMP280;23314;51.114;6.900;2022-12-04T05:08:31;101308.81;;;3.73
37452;BMP280;23314;51.114;6.900;2022-12-04T05:10:56;101309.06;;;3.68
37452;BMP280;23314;51.114;6.900;2022-12-04T05:13:22;101308.94;;;3.64
37452;BMP280;23314;51.114;6.900;2022-12-04T05:16:02;101315.47;;;3.54
37452;BMP280;23314;51.114;6.900;2022-12-04T05:18:28;101308.34;;;3.42
37452;BMP280;23314;51.114;6.900;2022-12-04T05:20:54;101313.63;;;3.30
37452;BMP280;23314;51.114;6.900;2022-12-04T05:23:20;101300.16;;;3.19
37452;BMP280;23314;51.114;6.900;2022-12-04T05:25:45;101315.31;;;3.10
37452;BMP280;23314;51.114;6.900;2022-12-04T05:28:11;101304.22;;;3.04
37452;BMP280;23314;51.114;6.900;2022-12-04T05:30:36;101299.97;;;2.99
37452;BMP280;23314;51.114;6.900;2022-12-04T05:33:02;101308.09;;;2.94
37452;BMP280;23314;51.114;6.900;2022-12-04T05:35:27;101306.88;;;2.92
37452;BMP280;23314;51.114;6.900;2022-12-04T05:37:53;101315.88;;;2.91
37452;BMP280;23314;51.114;6.900;2022-12-04T05:40:18;101314.78;;;2.92
37452;BMP280;23314;51.114;6.900;2022-12-04T05:42:43;101311.06;;;2.93
37452;BMP280;23314;51.114;6.900;2022-12-04T05:45:09;101306.56;;;2.93
37452;BMP280;23314;51.114;6.900;2022-12-04T05:47:39;101305.47;;;2.94
37452;BMP280;23314;51.114;6.900;2022-12-04T05:50:05;101308.09;;;2.94
37452;BMP280;23314;51.114;6.900;2022-12-04T05:52:31;101297.56;;;2.94
37452;BMP280;23314;51.114;6.900;2022-12-04T05:54:56;101299.66;;;2.88
37452;BMP280;23314;51.114;6.900;2022-12-04T05:57:22;101306.09;;;2.79
37452;BMP280;23314;51.114;6.900;2022-12-04T05:59:49;101310.72;;;2.69
37452;BMP280;23314;51.114;6.900;2022-12-04T06:02:14;101308.94;;;2.61
37452;BMP280;23314;51.114;6.900;2022-12-04T06:04:40;101308.28;;;2.52
37452;BMP280;23314;51.114;6.900;2022-12-04T06:07:05;101315.41;;;2.51
37452;BMP280;23314;51.114;6.900;2022-12-04T06:09:31;101320.03;;;2.54
37452;BMP280;23314;51.114;6.900;2022-12-04T06:11:57;101311.16;;;2.59
37452;BMP280;23314;51.114;6.900;2022-12-04T06:14:22;101314.78;;;2.67
37452;BMP280;23314;51.114;6.900;2022-12-04T06:16:48;101311.91;;;2.72
37452;BMP280;23314;51.114;6.900;2022-12-04T06:19:15;101317.06;;;2.81
37452;BMP280;23314;51.114;6.900;2022-12-04T06:21:42;101317.66;;;2.86
37452;BMP280;23314;51.114;6.900;2022-12-04T06:24:19;101318.66;;;2.94
37452;BMP280;23314;51.114;6.900;2022-12-04T06:26:46;101320.69;;;3.01
37452;BMP280;23314;51.114;6.900;2022-12-04T06:29:11;101319.69;;;3.06
37452;BMP280;23314;51.114;6.900;2022-12-04T06:31:38;101320.94;;;3.08
37452;BMP280;23314;51.114;6.900;2022-12-04T06:34:04;101316.53;;;3.12
37452;BMP280;23314;51.114;6.900;2022-12-04T06:36:30;101320.81;;;3.17
37452;BMP280;23314;51.114;6.900;2022-12-04T06:38:56;101325.53;;;3.24
37452;BMP280;23314;51.114;6.900;2022-12-04T06:41:23;101328.69;;;3.29
37452;BMP280;23314;51.114;6.900;2022-12-04T06:43:49;101323.53;;;3.33
37452;BMP280;23314;51.114;6.900;2022-12-04T06:46:21;101325.72;;;3.31
37452;BMP280;23314;51.114;6.900;2022-12-04T06:48:47;101331.44;;;3.33
37452;BMP280;23314;51.114;6.900;2022-12-04T06:51:19;101331.44;;;3.33
37452;BMP280;23314;51.114;6.900;2022-12-04T06:53:45;101327.81;;;3.38
37452;BMP280;23314;51.114;6.900;2022-12-04T06:56:13;101329.44;;;3.42
37452;BMP280;23314;51.114;6.900;2022-12-04T06:58:42;101338.56;;;3.45
37452;BMP280;23314;51.114;6.900;2022-12-04T07:01:09;101339.34;;;3.45
37452;BMP280;23314;51.114;6.900;2022-12-04T07:03:36;101328.34;;;3.43
37452;BMP280;23314;51.114;6.900;2022-12-04T07:06:11;101331.09;;;3.47
37452;BMP280;23314;51.114;6.900;2022-12-04T07:08:38;101323.72;;;3.53
37452;BMP280;23314;51.114;6.900;2022-12-04T07:11:03;101329.84;;;3.57
37452;BMP280;23314;51.114;6.900;2022-12-04T07:13:28;101321.94;;;3.57
37452;BMP280;23314;51.114;6.900;2022-12-04T07:15:54;101327.66;;;3.59
37452;BMP280;23314;51.114;6.900;2022-12-04T07:18:19;101335.66;;;3.62
37452;BMP280;23314;51.114;6.900;2022-12-04T07:20:44;101341.81;;;3.67
37452;BMP280;23314;51.114;6.900;2022-12-04T07:23:10;101333.66;;;3.72
37452;BMP280;23314;51.114;6.900;2022-12-04T07:25:38;101334.19;;;3.77
37452;BMP280;23314;51.114;6.900;2022-12-04T07:28:04;101338.03;;;3.80
37452;BMP280;23314;51.114;6.900;2022-12-04T07:30:29;101347.47;;;3.81
37452;BMP280;23314;51.114;6.900;2022-12-04T07:32:55;101340.75;;;3.84
37452;BMP280;23314;51.114;6.900;2022-12-04T07:35:20;101340.06;;;3.87
37452;BMP280;23314;51.114;6.900;2022-12-04T07:37:45;101346.56;;;3.89
37452;BMP280;23314;51.114;6.900;2022-12-04T07:40:11;101347.75;;;3.92
37452;BMP280;23314;51.114;6.900;2022-12-04T07:42:37;101345.78;;;3.89
37452;BMP280;23314;51.114;6.900;2022-12-04T07:45:03;101349.22;;;3.89
37452;BMP280;23314;51.114;6.900;2022-12-04T07:47:28;101356.69;;;3.87
37452;BMP280;23314;51.114;6.900;2022-12-04T07:49:54;101350.97;;;3.85
37452;BMP280;23314;51.114;6.900;2022-12-04T07:52:19;101356.59;;;3.84
37452;BMP280;23314;51.114;6.900;2022-12-04T07:54:44;101355.31;;;3.77
37452;BMP280;23314;51.114;6.900;2022-12-04T07:57:09;101355.97;;;3.74
37452;BMP280;23314;51.114;6.900;2022-12-04T07:59:35;101353.00;;;3.76
37452;BMP280;23314;51.114;6.900;2022-12-04T08:02:00;101356.41;;;3.76
37452;BMP280;23314;51.114;6.900;2022-12-04T08:04:26;101358.28;;;3.76
37452;BMP280;23314;51.114;6.900;2022-12-04T08:06:51;101361.78;;;3.80
37452;BMP280;23314;51.114;6.900;2022-12-04T08:09:16;101365.19;;;3.80
37452;BMP280;23314;51.114;6.900;2022-12-04T08:11:41;101363.66;;;3.79
37452;BMP280;23314;51.114;6.900;2022-12-04T08:14:07;101367.63;;;3.73
37452;BMP280;23314;51.114;6.900;2022-12-04T08:16:35;101365.34;;;3.72
37452;BMP280;23314;51.114;6.900;2022-12-04T08:19:01;101371.16;;;3.77
37452;BMP280;23314;51.114;6.900;2022-12-04T08:21:29;101371.22;;;3.81
37452;BMP280;23314;51.114;6.900;2022-12-04T08:23:56;101364.06;;;3.81
37452;BMP280;23314;51.114;6.900;2022-12-04T08:26:24;101366.81;;;3.85
37452;BMP280;23314;51.114;6.900;2022-12-04T08:28:52;101366.59;;;3.90
37452;BMP280;23314;51.114;6.900;2022-12-04T08:31:23;101367.13;;;3.96
37452;BMP280;23314;51.114;6.900;2022-12-04T08:33:50;101372.81;;;3.98
37452;BMP280;23314;51.114;6.900;2022-12-04T08:36:17;101361.47;;;3.97
37452;BMP280;23314;51.114;6.900;2022-12-04T08:38:43;101377.66;;;3.96
37452;BMP280;23314;51.114;6.900;2022-12-04T08:41:11;101371.94;;;3.94
37452;BMP280;23314;51.114;6.900;2022-12-04T08:43:37;101379.88;;;3.94
37452;BMP280;23314;51.114;6.900;2022-12-04T08:46:05;101372.41;;;3.96
37452;BMP280;23314;51.114;6.900;2022-12-04T08:48:31;101375.13;;;4.00
37452;BMP280;23314;51.114;6.900;2022-12-04T08:50:57;101374.03;;;4.01
37452;BMP280;23314;51.114;6.900;2022-12-04T08:53:23;101366.19;;;4.04
37452;BMP280;23314;51.114;6.900;2022-12-04T08:55:49;101373.84;;;4.09
37452;BMP280;23314;51.114;6.900;2022-12-04T08:58:14;101379.25;;;4.13
37452;BMP280;23314;51.114;6.900;2022-12-04T09:00:40;101371.09;;;4.18
37452;BMP280;23314;51.114;6.900;2022-12-04T09:03:05;101366.56;;;4.19
37452;BMP280;23314;51.114;6.900;2022-12-04T09:05:31;101364.81;;;4.23
37452;BMP280;23314;51.114;6.900;2022-12-04T09:07:56;101362.22;;;4.26
37452;BMP280;23314;51.114;6.900;2022-12-04T09:10:22;101360.69;;;4.25
37452;BMP280;23314;51.114;6.900;2022-12-04T09:12:48;101359.94;;;4.25
37452;BMP280;23314;51.114;6.900;2022-12-04T09:15:13;101359.56;;;4.26
37452;BMP280;23314;51.114;6.900;2022-12-04T09:17:39;101355.84;;;4.27
37452;BMP280;23314;51.114;6.900;2022-12-04T09:20:05;101347.91;;;4.27
37452;BMP280;23314;51.114;6.900;2022-12-04T09:22:35;101357.47;;;4.32
37452;BMP280;23314;51.114;6.900;2022-12-04T09:25:01;101361.75;;;4.37
37452;BMP280;23314;51.114;6.900;2022-12-04T09:27:26;101361.41;;;4.38
37452;BMP280;23314;51.114;6.900;2022-12-04T09:29:52;101362.84;;;4.36
37452;BMP280;23314;51.114;6.900;2022-12-04T09:32:17;101374.16;;;4.36
37452;BMP280;23314;51.114;6.900;2022-12-04T09:34:42;101375.72;;;4.37
37452;BMP280;23314;51.114;6.900;2022-12-04T09:37:08;101380.31;;;4.40
37452;BMP280;23314;51.114;6.900;2022-12-04T09:39:33;101379.72;;;4.47
37452;BMP280;23314;51.114;6.900;2022-12-04T09:45:12;101391.81;;;4.32
37452;BMP280;23314;51.114;6.900;2022-12-04T09:47:42;101391.03;;;4.32
37452;BMP280;23314;51.114;6.900;2022-12-04T09:50:38;101392.16;;;4.31
37452;BMP280;23314;51.114;6.900;2022-12-04T09:53:40;101389.31;;;4.23
37452;BMP280;23314;51.114;6.900;2022-12-04T09:56:11;101386.59;;;4.20
37452;BMP280;23314;51.114;6.900;2022-12-04T09:58:42;101386.25;;;4.21
37452;BMP280;23314;51.114;6.900;2022-12-04T10:01:20;101381.81;;;4.25
37452;BMP280;23314;51.114;6.900;2022-12-04T10:03:45;101377.75;;;4.28
37452;BMP280;23314;51.114;6.900;2022-12-04T10:06:38;101379.72;;;4.31
37452;BMP280;23314;51.114;6.900;2022-12-04T10:09:19;101385.84;;;4.35
37452;BMP280;23314;51.114;6.900;2022-12-04T10:11:55;101382.22;;;4.40
37452;BMP280;23314;51.114;6.900;2022-12-04T10:14:45;101378.03;;;4.39
37452;BMP280;23314;51.114;6.900;2022-12-04T10:17:35;101384.50;;;4.41
37452;BMP280;23314;51.114;6.900;2022-12-04T10:25:25;101361.56;;;4.46
37452;BMP280;23314;51.114;6.900;2022-12-04T10:28:02;101359.00;;;4.49
37452;BMP280;23314;51.114;6.900;2022-12-04T10:30:30;101361.75;;;4.53
37452;BMP280;23314;51.114;6.900;2022-12-04T10:35:48;101358.84;;;4.58
37452;BMP280;23314;51.114;6.900;2022-12-04T10:38:28;101353.06;;;4.68
37452;BMP280;23314;51.114;6.900;2022-12-04T10:40:59;101347.16;;;4.75
37452;BMP280;23314;51.114;6.900;2022-12-04T10:45:58;101350.16;;;4.73
37452;BMP280;23314;51.114;6.900;2022-12-04T10:48:36;101339.50;;;4.70
37452;BMP280;23314;51.114;6.900;2022-12-04T10:51:03;101343.00;;;4.74
37452;BMP280;23314;51.114;6.900;2022-12-04T10:53:31;101339.56;;;4.89
37452;BMP280;23314;51.114;6.900;2022-12-04T10:56:15;101335.47;;;4.92
37452;BMP280;23314;51.114;6.900;2022-12-04T10:58:53;101338.13;;;4.92
37452;BMP280;23314;51.114;6.900;2022-12-04T11:01:20;101332.22;;;4.99
37452;BMP280;23314;51.114;6.900;2022-12-04T11:03:54;101322.59;;;4.91
37452;BMP280;23314;51.114;6.900;2022-12-04T11:06:23;101320.22;;;4.85
37452;BMP280;23314;51.114;6.900;2022-12-04T11:08:49;101319.78;;;4.83
37452;BMP280;23314;51.114;6.900;2022-12-04T11:11:24;101317.22;;;4.87
37452;BMP280;23314;51.114;6.900;2022-12-04T11:14:21;101316.22;;;4.92
37452;BMP280;23314;51.114;6.900;2022-12-04T11:16:47;101315.09;;;4.93
37452;BMP280;23314;51.114;6.900;2022-12-04T11:21:50;101307.84;;;4.89
37452;BMP280;23314;51.114;6.900;2022-12-04T11:24:32;101300.00;;;4.93
37452;BMP280;23314;51.114;6.900;2022-12-04T11:26:58;101306.81;;;4.94
37452;BMP280;23314;51.114;6.900;2022-12-04T11:29:44;101301.59;;;4.98
37452;BMP280;23314;51.114;6.900;2022-12-04T11:32:22;101305.06;;;5.02
37452;BMP280;23314;51.114;6.900;2022-12-04T11:34:50;101302.50;;;5.05
37452;BMP280;23314;51.114;6.900;2022-12-04T11:37:31;101298.06;;;5.10
37452;BMP280;23314;51.114;6.900;2022-12-04T11:39:58;101295.59;;;5.17
37452;BMP280;23314;51.114;6.900;2022-12-04T11:42:28;101294.50;;;5.21
37452;BMP280;23314;51.114;6.900;2022-12-04T11:47:40;101296.72;;;5.19
37452;BMP280;23314;51.114;6.900;2022-12-04T11:50:11;101287.56;;;5.13
37452;BMP280;23314;51.114;6.900;2022-12-04T11:52:49;101291.41;;;5.16
37452;BMP280;23314;51.114;6.900;2022-12-04T11:55:34;101289.44;;;5.13
37452;BMP280;23314;51.114;6.900;2022-12-04T12:01:35;101285.81;;;5.21
37452;BMP280;23314;51.114;6.900;2022-12-04T12:06:51;101287.78;;;5.24
37452;BMP280;23314;51.114;6.900;2022-12-04T12:12:09;101288.34;;;5.33
37452;BMP280;23314;51.114;6.900;2022-12-04T12:17:48;101284.66;;;5.38
37452;BMP280;23314;51.114;6.900;2022-12-04T12:20:28;101292.66;;;5.42
37452;BMP280;23314;51.114;6.900;2022-12-04T12:26:08;101287.16;;;5.31
37452;BMP280;23314;51.114;6.900;2022-12-04T12:28:43;101285.63;;;5.30
37452;BMP280;23314;51.114;6.900;2022-12-04T12:31:34;101278.13;;;5.32
37452;BMP280;23314;51.114;6.900;2022-12-04T12:34:07;101284.97;;;5.36
37452;BMP280;23314;51.114;6.900;2022-12-04T12:36:40;101279.28;;;5.34
37452;BMP280;23314;51.114;6.900;2022-12-04T12:39:39;101283.75;;;5.30
37452;BMP280;23314;51.114;6.900;2022-12-04T12:42:06;101280.28;;;5.26
37452;BMP280;23314;51.114;6.900;2022-12-04T12:44:47;101291.28;;;5.28
37452;BMP280;23314;51.114;6.900;2022-12-04T12:47:17;101285.28;;;5.31
37452;BMP280;23314;51.114;6.900;2022-12-04T12:55:03;101291.19;;;5.44
37452;BMP280;23314;51.114;6.900;2022-12-04T12:57:37;101284.44;;;5.47
37452;BMP280;23314;51.114;6.900;2022-12-04T13:00:13;101272.81;;;5.51
37452;BMP280;23314;51.114;6.900;2022-12-04T13:02:46;101264.03;;;5.47
37452;BMP280;23314;51.114;6.900;2022-12-04T13:05:18;101262.00;;;5.41
37452;BMP280;23314;51.114;6.900;2022-12-04T13:07:50;101262.06;;;5.44
37452;BMP280;23314;51.114;6.900;2022-12-04T13:10:22;101261.25;;;5.40
37452;BMP280;23314;51.114;6.900;2022-12-04T13:15:15;101252.84;;;5.34
37452;BMP280;23314;51.114;6.900;2022-12-04T13:17:42;101252.50;;;5.36
37452;BMP280;23314;51.114;6.900;2022-12-04T13:20:20;101254.44;;;5.39
37452;BMP280;23314;51.114;6.900;2022-12-04T13:25:23;101249.72;;;5.29
37452;BMP280;23314;51.114;6.900;2022-12-04T13:28:06;101248.00;;;5.20
37452;BMP280;23314;51.114;6.900;2022-12-04T13:30:59;101245.94;;;5.10
37452;BMP280;23314;51.114;6.900;2022-12-04T13:41:59;101231.19;;;4.89
37452;BMP280;23314;51.114;6.900;2022-12-04T13:44:26;101233.47;;;4.91
37452;BMP280;23314;51.114;6.900;2022-12-04T13:49:26;101223.31;;;4.93
37452;BMP280;23314;51.114;6.900;2022-12-04T13:51:56;101228.97;;;4.92
37452;BMP280;23314;51.114;6.900;2022-12-04T13:54:35;101224.00;;;4.90
37452;BMP280;23314;51.114;6.900;2022-12-04T13:59:39;101223.94;;;4.86
37452;BMP280;23314;51.114;6.900;2022-12-04T14:02:22;101233.41;;;4.87
37452;BMP280;23314;51.114;6.900;2022-12-04T14:05:02;101234.50;;;4.86
37452;BMP280;23314;51.114;6.900;2022-12-04T14:07:32;101236.03;;;4.87
37452;BMP280;23314;51.114;6.900;2022-12-04T14:10:01;101235.25;;;4.87
37452;BMP280;23314;51.114;6.900;2022-12-04T14:12:31;101240.97;;;4.89
37452;BMP280;23314;51.114;6.900;2022-12-04T14:15:05;101241.06;;;4.93
37452;BMP280;23314;51.114;6.900;2022-12-04T14:17:36;101240.38;;;4.96
37452;BMP280;23314;51.114;6.900;2022-12-04T14:20:07;101241.16;;;4.96
37452;BMP280;23314;51.114;6.900;2022-12-04T14:22:45;101239.63;;;4.95
37452;BMP280;23314;51.114;6.900;2022-12-04T14:30:11;101233.16;;;4.93
37452;BMP280;23314;51.114;6.900;2022-12-04T14:32:39;101227.84;;;4.93
37452;BMP280;23314;51.114;6.900;2022-12-04T14:35:13;101212.31;;;4.91
37452;BMP280;23314;51.114;6.900;2022-12-04T14:37:46;101206.63;;;4.89
37452;BMP280;23314;51.114;6.900;2022-12-04T14:40:20;101209.59;;;4.87
37452;BMP280;23314;51.114;6.900;2022-12-04T14:42:47;101210.28;;;4.84
37452;BMP280;23314;51.114;6.900;2022-12-04T14:45:22;101218.94;;;4.81
37452;BMP280;23314;51.114;6.900;2022-12-04T14:51:15;101223.03;;;4.79
37452;BMP280;23314;51.114;6.900;2022-12-04T14:58:49;101218.19;;;4.81
37452;BMP280;23314;51.114;6.900;2022-12-04T15:01:33;101216.91;;;4.74
37452;BMP280;23314;51.114;6.900;2022-12-04T15:04:06;101215.78;;;4.76
37452;BMP280;23314;51.114;6.900;2022-12-04T15:06:34;101213.47;;;4.74
37452;BMP280;23314;51.114;6.900;2022-12-04T15:09:03;101211.53;;;4.71
37452;BMP280;23314;51.114;6.900;2022-12-04T15:11:52;101210.34;;;4.68
37452;BMP280;23314;51.114;6.900;2022-12-04T15:14:45;101214.88;;;4.68
37452;BMP280;23314;51.114;6.900;2022-12-04T15:17:12;101216.41;;;4.69
37452;BMP280;23314;51.114;6.900;2022-12-04T15:19:38;101209.97;;;4.70
37452;BMP280;23314;51.114;6.900;2022-12-04T15:22:08;101211.13;;;4.69
37452;BMP280;23314;51.114;6.900;2022-12-04T15:24:35;101218.28;;;4.68
37452;BMP280;23314;51.114;6.900;2022-12-04T15:27:03;101215.69;;;4.72
37452;BMP280;23314;51.114;6.900;2022-12-04T15:29:30;101217.59;;;4.71
37452;BMP280;23314;51.114;6.900;2022-12-04T15:32:02;101225.84;;;4.70
37452;BMP280;23314;51.114;6.900;2022-12-04T15:34:40;101214.09;;;4.67
37452;BMP280;23314;51.114;6.900;2022-12-04T15:37:26;101231.47;;;4.68
37452;BMP280;23314;51.114;6.900;2022-12-04T15:39:52;101236.78;;;4.68
37452;BMP280;23314;51.114;6.900;2022-12-04T15:44:55;101227.72;;;4.69
37452;BMP280;23314;51.114;6.900;2022-12-04T15:47:26;101237.13;;;4.67
37452;BMP280;23314;51.114;6.900;2022-12-04T15:49:52;101241.31;;;4.68
37452;BMP280;23314;51.114;6.900;2022-12-04T15:52:20;101245.06;;;4.67
37452;BMP280;23314;51.114;6.900;2022-12-04T15:55:00;101233.78;;;4.70
37452;BMP280;23314;51.114;6.900;2022-12-04T15:57:40;101236.84;;;4.72
37452;BMP280;23314;51.114;6.900;2022-12-04T16:00:22;101241.38;;;4.71
37452;BMP280;23314;51.114;6.900;2022-12-04T16:02:48;101236.84;;;4.72
37452;BMP280;23314;51.114;6.900;2022-12-04T16:07:49;101233.19;;;4.77
37452;BMP280;23314;51.114;6.900;2022-12-04T16:10:26;101236.25;;;4.79